sensor_id;sensor_type;location;lat;lon;timestamp;P1;durP1;ratioP1;P2;durP2;ratioP2
68886;SDS011;55925;51.764;6.402;2023-03-11T00:00:22;4.65;;;1.30;;
68886;SDS011;55925;51.764;6.402;2023-03-11T00:02:49;4.47;;;1.75;;
68886;SDS011;55925;51.764;6.402;2023-03-11T00:05:17;5.45;;;1.63;;
68886;SDS011;55925;51.764;6.402;2023-03-11T00:07:43;6.22;;;1.85;;
68886;SDS011;55925;51.764;6.402;2023-03-11T00:10:12;4.68;;;2.00;;
68886;SDS011;55925;51.764;6.402;2023-03-11T00:12:39;5.85;;;2.08;;
68886;SDS011;55925;51.764;6.402;2023-03-11T00:15:05;8.30;;;1.88;;
68886;SDS011;55925;51.764;6.402;2023-03-11T00:17:31;6.03;;;1.83;;
68886;SDS011;55925;51.764;6.402;2023-03-11T00:19:57;5.70;;;2.08;;
68886;SDS011;55925;51.764;6.402;2023-03-11T00:22:23;7.03;;;1.80;;
68886;SDS011;55925;51.764;6.402;2023-03-11T00:24:49;7.45;;;2.03;;
68886;SDS011;55925;51.764;6.402;2023-03-11T00:27:15;4.97;;;1.42;;
68886;SDS011;55925;51.764;6.402;2023-03-11T00:29:41;7.00;;;1.42;;
68886;SDS011;55925;51.764;6.402;2023-03-11T00:32:07;5.85;;;1.73;;
68886;SDS011;55925;51.764;6.402;2023-03-11T00:34:33;5.18;;;1.65;;
68886;SDS011;55925;51.764;6.402;2023-03-11T00:36:59;7.80;;;1.85;;
68886;SDS011;55925;51.764;6.402;2023-03-11T00:39:25;7.45;;;2.35;;
68886;SDS011;55925;51.764;6.402;2023-03-11T00:41:51;9.32;;;1.90;;
68886;SDS011;55925;51.764;6.402;2023-03-11T00:44:17;6.05;;;1.75;;
68886;SDS011;55925;51.764;6.402;2023-03-11T00:46:43;6.20;;;1.90;;
68886;SDS011;55925;51.764;6.402;2023-03-11T00:49:09;5.80;;;1.58;;
68886;SDS011;55925;51.764;6.402;2023-03-11T00:51:35;5.65;;;1.90;;
68886;SDS011;55925;51.764;6.402;2023-03-11T00:54:01;7.70;;;2.22;;
68886;SDS011;55925;51.764;6.402;2023-03-11T00:56:27;11.18;;;2.67;;
68886;SDS011;55925;51.764;6.402;2023-03-11T00:58:53;8.75;;;2.08;;
68886;SDS011;55925;51.764;6.402;2023-03-11T01:01:19;7.75;;;2.13;;
68886;SDS011;55925;51.764;6.402;2023-03-11T01:03:45;6.70;;;1.92;;
68886;SDS011;55925;51.764;6.402;2023-03-11T01:06:11;7.20;;;2.00;;
68886;SDS011;55925;51.764;6.402;2023-03-11T01:08:38;5.95;;;1.65;;
68886;SDS011;55925;51.764;6.402;2023-03-11T01:11:04;4.38;;;1.60;;
68886;SDS011;55925;51.764;6.402;2023-03-11T01:13:30;8.20;;;2.22;;
68886;SDS011;55925;51.764;6.402;2023-03-11T01:15:56;6.78;;;1.55;;
68886;SDS011;55925;51.764;6.402;2023-03-11T01:18:22;7.43;;;1.90;;
68886;SDS011;55925;51.764;6.402;2023-03-11T01:20:49;14.20;;;3.05;;
68886;SDS011;55925;51.764;6.402;2023-03-11T01:23:15;9.05;;;2.28;;
68886;SDS011;55925;51.764;6.402;2023-03-11T01:25:41;7.32;;;1.85;;
68886;SDS011;55925;51.764;6.402;2023-03-11T01:28:07;8.07;;;2.03;;
68886;SDS011;55925;51.764;6.402;2023-03-11T01:30:35;6.22;;;1.95;;
68886;SDS011;55925;51.764;6.402;2023-03-11T01:33:02;9.98;;;2.20;;
68886;SDS011;55925;51.764;6.402;2023-03-11T01:35:28;8.30;;;1.92;;
68886;SDS011;55925;51.764;6.402;2023-03-11T01:37:55;11.13;;;2.50;;
68886;SDS011;55925;51.764;6.402;2023-03-11T01:40:26;6.82;;;1.98;;
68886;SDS011;55925;51.764;6.402;2023-03-11T01:42:53;8.93;;;2.30;;
68886;SDS011;55925;51.764;6.402;2023-03-11T01:50:17;8.32;;;1.92;;
68886;SDS011;55925;51.764;6.402;2023-03-11T01:52:43;7.13;;;2.00;;
68886;SDS011;55925;51.764;6.402;2023-03-11T01:55:10;8.38;;;2.00;;
68886;SDS011;55925;51.764;6.402;2023-03-11T01:57:37;7.13;;;2.30;;
68886;SDS011;55925;51.764;6.402;2023-03-11T02:00:06;9.13;;;1.73;;
68886;SDS011;55925;51.764;6.402;2023-03-11T02:02:34;5.75;;;1.85;;
68886;SDS011;55925;51.764;6.402;2023-03-11T02:05:01;11.02;;;2.45;;
68886;SDS011;55925;51.764;6.402;2023-03-11T02:07:28;7.90;;;2.25;;
68886;SDS011;55925;51.764;6.402;2023-03-11T02:09:54;7.05;;;1.73;;
68886;SDS011;55925;51.764;6.402;2023-03-11T02:12:20;11.00;;;2.00;;
68886;SDS011;55925;51.764;6.402;2023-03-11T02:14:47;12.63;;;2.42;;
68886;SDS011;55925;51.764;6.402;2023-03-11T02:17:14;10.43;;;1.80;;
68886;SDS011;55925;51.764;6.402;2023-03-11T02:22:09;6.18;;;1.60;;
68886;SDS011;55925;51.764;6.402;2023-03-11T02:27:27;8.25;;;2.08;;
68886;SDS011;55925;51.764;6.402;2023-03-11T02:29:56;4.88;;;1.67;;
68886;SDS011;55925;51.764;6.402;2023-03-11T02:32:24;4.40;;;1.67;;
68886;SDS011;55925;51.764;6.402;2023-03-11T02:34:51;8.15;;;1.77;;
68886;SDS011;55925;51.764;6.402;2023-03-11T02:37:17;5.88;;;1.90;;
68886;SDS011;55925;51.764;6.402;2023-03-11T02:39:44;4.80;;;1.95;;
68886;SDS011;55925;51.764;6.402;2023-03-11T02:44:43;5.63;;;1.60;;
68886;SDS011;55925;51.764;6.402;2023-03-11T02:47:10;9.32;;;2.20;;
68886;SDS011;55925;51.764;6.402;2023-03-11T02:49:36;4.75;;;1.92;;
68886;SDS011;55925;51.764;6.402;2023-03-11T02:52:03;5.22;;;1.88;;
68886;SDS011;55925;51.764;6.402;2023-03-11T02:54:29;6.45;;;2.03;;
68886;SDS011;55925;51.764;6.402;2023-03-11T02:56:55;6.40;;;1.80;;
68886;SDS011;55925;51.764;6.402;2023-03-11T02:59:21;8.23;;;1.88;;
68886;SDS011;55925;51.764;6.402;2023-03-11T03:01:47;6.45;;;1.92;;
68886;SDS011;55925;51.764;6.402;2023-03-11T03:04:13;9.38;;;2.20;;
68886;SDS011;55925;51.764;6.402;2023-03-11T03:06:39;11.43;;;1.88;;
68886;SDS011;55925;51.764;6.402;2023-03-11T03:09:05;7.10;;;1.95;;
68886;SDS011;55925;51.764;6.402;2023-03-11T03:11:31;6.80;;;2.13;;
68886;SDS011;55925;51.764;6.402;2023-03-11T03:13:57;8.00;;;2.03;;
68886;SDS011;55925;51.764;6.402;2023-03-11T03:16:23;6.30;;;1.92;;
68886;SDS011;55925;51.764;6.402;2023-03-11T03:18:49;6.47;;;1.60;;
68886;SDS011;55925;51.764;6.402;2023-03-11T03:21:16;11.98;;;2.63;;
68886;SDS011;55925;51.764;6.402;2023-03-11T03:23:42;6.40;;;1.63;;
68886;SDS011;55925;51.764;6.402;2023-03-11T03:26:10;8.48;;;1.95;;
68886;SDS011;55925;51.764;6.402;2023-03-11T03:28:36;7.68;;;1.75;;
68886;SDS011;55925;51.764;6.402;2023-03-11T03:31:03;5.47;;;2.10;;
68886;SDS011;55925;51.764;6.402;2023-03-11T03:33:30;6.32;;;1.65;;
68886;SDS011;55925;51.764;6.402;2023-03-11T03:35:56;8.65;;;1.80;;
68886;SDS011;55925;51.764;6.402;2023-03-11T03:38:22;8.18;;;1.98;;
68886;SDS011;55925;51.764;6.402;2023-03-11T03:40:48;6.85;;;2.15;;
68886;SDS011;55925;51.764;6.402;2023-03-11T03:43:14;9.15;;;2.50;;
68886;SDS011;55925;51.764;6.402;2023-03-11T03:45:40;12.32;;;3.00;;
68886;SDS011;55925;51.764;6.402;2023-03-11T03:48:06;6.85;;;1.88;;
68886;SDS011;55925;51.764;6.402;2023-03-11T03:50:32;7.47;;;1.90;;
68886;SDS011;55925;51.764;6.402;2023-03-11T03:52:58;7.68;;;1.83;;
68886;SDS011;55925;51.764;6.402;2023-03-11T03:55:24;5.72;;;1.83;;
68886;SDS011;55925;51.764;6.402;2023-03-11T03:57:50;5.03;;;1.58;;
68886;SDS011;55925;51.764;6.402;2023-03-11T04:00:16;5.93;;;1.90;;
68886;SDS011;55925;51.764;6.402;2023-03-11T04:02:42;7.13;;;1.90;;
68886;SDS011;55925;51.764;6.402;2023-03-11T04:05:08;7.50;;;1.67;;
68886;SDS011;55925;51.764;6.402;2023-03-11T04:07:34;6.25;;;1.65;;
68886;SDS011;55925;51.764;6.402;2023-03-11T04:10:01;4.75;;;2.00;;
68886;SDS011;55925;51.764;6.402;2023-03-11T04:12:27;9.15;;;1.67;;
68886;SDS011;55925;51.764;6.402;2023-03-11T04:14:53;8.10;;;1.60;;
68886;SDS011;55925;51.764;6.402;2023-03-11T04:17:19;5.68;;;1.35;;
68886;SDS011;55925;51.764;6.402;2023-03-11T04:19:45;6.07;;;1.40;;
68886;SDS011;55925;51.764;6.402;2023-03-11T04:22:11;5.10;;;1.30;;
68886;SDS011;55925;51.764;6.402;2023-03-11T04:24:37;3.92;;;1.30;;
68886;SDS011;55925;51.764;6.402;2023-03-11T04:27:03;6.90;;;1.60;;
68886;SDS011;55925;51.764;6.402;2023-03-11T04:29:29;5.03;;;1.48;;
68886;SDS011;55925;51.764;6.402;2023-03-11T04:31:55;6.75;;;1.63;;
68886;SDS011;55925;51.764;6.402;2023-03-11T04:34:21;5.85;;;1.60;;
68886;SDS011;55925;51.764;6.402;2023-03-11T04:36:50;4.95;;;1.23;;
68886;SDS011;55925;51.764;6.402;2023-03-11T04:39:16;7.35;;;1.50;;
68886;SDS011;55925;51.764;6.402;2023-03-11T04:41:42;5.60;;;1.50;;
68886;SDS011;55925;51.764;6.402;2023-03-11T04:44:08;4.55;;;1.50;;
68886;SDS011;55925;51.764;6.402;2023-03-11T04:46:34;7.68;;;1.58;;
68886;SDS011;55925;51.764;6.402;2023-03-11T04:49:00;5.20;;;1.65;;
68886;SDS011;55925;51.764;6.402;2023-03-11T04:51:26;3.92;;;1.33;;
68886;SDS011;55925;51.764;6.402;2023-03-11T04:53:52;3.78;;;1.40;;
68886;SDS011;55925;51.764;6.402;2023-03-11T04:56:18;6.90;;;1.52;;
68886;SDS011;55925;51.764;6.402;2023-03-11T04:58:44;3.58;;;1.13;;
68886;SDS011;55925;51.764;6.402;2023-03-11T05:01:10;4.85;;;1.30;;
68886;SDS011;55925;51.764;6.402;2023-03-11T05:03:36;5.78;;;1.20;;
68886;SDS011;55925;51.764;6.402;2023-03-11T05:06:02;8.05;;;1.50;;
68886;SDS011;55925;51.764;6.402;2023-03-11T05:08:28;4.15;;;1.92;;
68886;SDS011;55925;51.764;6.402;2023-03-11T05:10:54;4.45;;;1.20;;
68886;SDS011;55925;51.764;6.402;2023-03-11T05:13:20;4.38;;;1.30;;
68886;SDS011;55925;51.764;6.402;2023-03-11T05:15:47;3.63;;;1.63;;
68886;SDS011;55925;51.764;6.402;2023-03-11T05:18:13;3.00;;;1.33;;
68886;SDS011;55925;51.764;6.402;2023-03-11T05:20:39;7.85;;;1.45;;
68886;SDS011;55925;51.764;6.402;2023-03-11T05:23:05;3.83;;;1.38;;
68886;SDS011;55925;51.764;6.402;2023-03-11T05:25:31;4.60;;;1.75;;
68886;SDS011;55925;51.764;6.402;2023-03-11T05:27:59;4.60;;;1.30;;
68886;SDS011;55925;51.764;6.402;2023-03-11T05:30:25;6.38;;;1.90;;
68886;SDS011;55925;51.764;6.402;2023-03-11T05:32:51;7.53;;;1.85;;
68886;SDS011;55925;51.764;6.402;2023-03-11T05:35:17;4.68;;;1.70;;
68886;SDS011;55925;51.764;6.402;2023-03-11T05:37:44;6.47;;;2.28;;
68886;SDS011;55925;51.764;6.402;2023-03-11T05:40:13;4.55;;;1.23;;
68886;SDS011;55925;51.764;6.402;2023-03-11T05:42:39;5.13;;;1.65;;
68886;SDS011;55925;51.764;6.402;2023-03-11T05:45:06;7.85;;;1.60;;
68886;SDS011;55925;51.764;6.402;2023-03-11T05:47:32;4.13;;;1.20;;
68886;SDS011;55925;51.764;6.402;2023-03-11T05:49:58;3.80;;;1.40;;
68886;SDS011;55925;51.764;6.402;2023-03-11T05:52:24;8.95;;;1.80;;
68886;SDS011;55925;51.764;6.402;2023-03-11T05:54:50;9.48;;;1.95;;
68886;SDS011;55925;51.764;6.402;2023-03-11T05:57:17;5.75;;;1.17;;
68886;SDS011;55925;51.764;6.402;2023-03-11T05:59:43;6.18;;;1.60;;
68886;SDS011;55925;51.764;6.402;2023-03-11T06:02:09;4.50;;;1.17;;
68886;SDS011;55925;51.764;6.402;2023-03-11T06:04:35;7.10;;;1.73;;
68886;SDS011;55925;51.764;6.402;2023-03-11T06:07:01;4.85;;;1.52;;
68886;SDS011;55925;51.764;6.402;2023-03-11T06:09:27;5.22;;;1.40;;
68886;SDS011;55925;51.764;6.402;2023-03-11T06:11:53;6.07;;;2.20;;
68886;SDS011;55925;51.764;6.402;2023-03-11T06:14:19;7.55;;;1.80;;
68886;SDS011;55925;51.764;6.402;2023-03-11T06:16:45;3.85;;;1.30;;
68886;SDS011;55925;51.764;6.402;2023-03-11T06:19:11;7.57;;;1.70;;
68886;SDS011;55925;51.764;6.402;2023-03-11T06:21:37;5.20;;;1.45;;
68886;SDS011;55925;51.764;6.402;2023-03-11T06:24:03;5.20;;;1.45;;
68886;SDS011;55925;51.764;6.402;2023-03-11T06:26:29;4.47;;;1.70;;
68886;SDS011;55925;51.764;6.402;2023-03-11T06:28:55;5.13;;;1.75;;
68886;SDS011;55925;51.764;6.402;2023-03-11T06:31:23;5.88;;;1.92;;
68886;SDS011;55925;51.764;6.402;2023-03-11T06:33:49;8.20;;;1.70;;
68886;SDS011;55925;51.764;6.402;2023-03-11T06:36:16;6.60;;;1.70;;
68886;SDS011;55925;51.764;6.402;2023-03-11T06:38:43;6.90;;;1.50;;
68886;SDS011;55925;51.764;6.402;2023-03-11T06:41:10;6.35;;;1.80;;
68886;SDS011;55925;51.764;6.402;2023-03-11T06:43:37;8.50;;;1.70;;
68886;SDS011;55925;51.764;6.402;2023-03-11T06:46:16;7.38;;;2.10;;
68886;SDS011;55925;51.764;6.402;2023-03-11T06:48:43;6.13;;;1.67;;
68886;SDS011;55925;51.764;6.402;2023-03-11T06:51:15;11.38;;;2.28;;
68886;SDS011;55925;51.764;6.402;2023-03-11T06:53:41;5.30;;;1.50;;
68886;SDS011;55925;51.764;6.402;2023-03-11T06:56:11;6.13;;;1.67;;
68886;SDS011;55925;51.764;6.402;2023-03-11T06:58:39;6.15;;;1.50;;
68886;SDS011;55925;51.764;6.402;2023-03-11T07:01:06;6.00;;;1.75;;
68886;SDS011;55925;51.764;6.402;2023-03-11T07:03:32;6.25;;;1.75;;
68886;SDS011;55925;51.764;6.402;2023-03-11T07:05:58;6.72;;;1.98;;
68886;SDS011;55925;51.764;6.402;2023-03-11T07:08:24;3.70;;;1.52;;
68886;SDS011;55925;51.764;6.402;2023-03-11T07:11:01;32.75;;;2.53;;
68886;SDS011;55925;51.764;6.402;2023-03-11T07:13:28;5.15;;;2.00;;
68886;SDS011;55925;51.764;6.402;2023-03-11T07:16:07;8.20;;;2.33;;
68886;SDS011;55925;51.764;6.402;2023-03-11T07:18:34;4.93;;;1.85;;
68886;SDS011;55925;51.764;6.402;2023-03-11T07:21:01;7.88;;;1.80;;
68886;SDS011;55925;51.764;6.402;2023-03-11T07:23:27;6.07;;;2.05;;
68886;SDS011;55925;51.764;6.402;2023-03-11T07:25:53;6.50;;;2.03;;
68886;SDS011;55925;51.764;6.402;2023-03-11T07:28:20;8.88;;;1.85;;
68886;SDS011;55925;51.764;6.402;2023-03-11T07:30:46;11.55;;;1.90;;
68886;SDS011;55925;51.764;6.402;2023-03-11T07:33:12;5.93;;;1.80;;
68886;SDS011;55925;51.764;6.402;2023-03-11T07:35:38;9.30;;;2.55;;
68886;SDS011;55925;51.764;6.402;2023-03-11T07:38:04;6.07;;;2.03;;
68886;SDS011;55925;51.764;6.402;2023-03-11T07:40:32;9.25;;;2.25;;
68886;SDS011;55925;51.764;6.402;2023-03-11T07:42:58;7.95;;;2.50;;
68886;SDS011;55925;51.764;6.402;2023-03-11T07:45:24;8.68;;;2.35;;
68886;SDS011;55925;51.764;6.402;2023-03-11T07:47:50;7.95;;;2.20;;
68886;SDS011;55925;51.764;6.402;2023-03-11T07:50:16;8.77;;;2.17;;
68886;SDS011;55925;51.764;6.402;2023-03-11T07:52:43;8.85;;;2.75;;
68886;SDS011;55925;51.764;6.402;2023-03-11T07:55:09;6.30;;;2.47;;
68886;SDS011;55925;51.764;6.402;2023-03-11T07:57:35;6.75;;;2.25;;
68886;SDS011;55925;51.764;6.402;2023-03-11T08:00:01;7.25;;;1.98;;
68886;SDS011;55925;51.764;6.402;2023-03-11T08:02:27;6.82;;;2.17;;
68886;SDS011;55925;51.764;6.402;2023-03-11T08:04:54;6.40;;;2.22;;
68886;SDS011;55925;51.764;6.402;2023-03-11T08:07:20;8.82;;;2.47;;
68886;SDS011;55925;51.764;6.402;2023-03-11T08:09:46;6.45;;;1.90;;
68886;SDS011;55925;51.764;6.402;2023-03-11T08:12:12;7.95;;;2.13;;
68886;SDS011;55925;51.764;6.402;2023-03-11T08:14:38;10.85;;;2.60;;
68886;SDS011;55925;51.764;6.402;2023-03-11T08:17:05;6.10;;;2.22;;
68886;SDS011;55925;51.764;6.402;2023-03-11T08:19:31;7.32;;;2.35;;
68886;SDS011;55925;51.764;6.402;2023-03-11T08:21:59;4.85;;;2.08;;
68886;SDS011;55925;51.764;6.402;2023-03-11T08:24:25;9.70;;;1.90;;
68886;SDS011;55925;51.764;6.402;2023-03-11T08:26:51;6.88;;;1.83;;
68886;SDS011;55925;51.764;6.402;2023-03-11T08:29:17;7.18;;;2.22;;
68886;SDS011;55925;51.764;6.402;2023-03-11T08:31:43;6.85;;;1.85;;
68886;SDS011;55925;51.764;6.402;2023-03-11T08:34:09;5.60;;;1.83;;
68886;SDS011;55925;51.764;6.402;2023-03-11T08:36:35;4.97;;;1.58;;
68886;SDS011;55925;51.764;6.402;2023-03-11T08:39:01;7.43;;;1.85;;
68886;SDS011;55925;51.764;6.402;2023-03-11T08:41:27;5.45;;;1.80;;
68886;SDS011;55925;51.764;6.402;2023-03-11T08:43:54;5.38;;;1.88;;
68886;SDS011;55925;51.764;6.402;2023-03-11T08:46:22;7.13;;;1.85;;
68886;SDS011;55925;51.764;6.402;2023-03-11T08:48:49;7.70;;;1.80;;
68886;SDS011;55925;51.764;6.402;2023-03-11T08:51:15;10.45;;;2.25;;
68886;SDS011;55925;51.764;6.402;2023-03-11T08:53:41;5.53;;;1.92;;
68886;SDS011;55925;51.764;6.402;2023-03-11T08:56:07;5.25;;;1.50;;
68886;SDS011;55925;51.764;6.402;2023-03-11T08:58:33;4.05;;;1.50;;
68886;SDS011;55925;51.764;6.402;2023-03-11T09:00:59;8.48;;;2.10;;
68886;SDS011;55925;51.764;6.402;2023-03-11T09:03:25;12.00;;;3.63;;
68886;SDS011;55925;51.764;6.402;2023-03-11T09:05:57;7.38;;;3.22;;
68886;SDS011;55925;51.764;6.402;2023-03-11T09:08:23;5.28;;;2.05;;
68886;SDS011;55925;51.764;6.402;2023-03-11T09:10:49;4.00;;;1.10;;
68886;SDS011;55925;51.764;6.402;2023-03-11T09:13:15;8.32;;;1.75;;
68886;SDS011;55925;51.764;6.402;2023-03-11T09:15:40;6.43;;;2.22;;
68886;SDS011;55925;51.764;6.402;2023-03-11T09:18:09;7.68;;;2.33;;
68886;SDS011;55925;51.764;6.402;2023-03-11T09:20:36;6.22;;;2.53;;
68886;SDS011;55925;51.764;6.402;2023-03-11T09:23:03;5.82;;;1.60;;
68886;SDS011;55925;51.764;6.402;2023-03-11T09:25:29;3.25;;;1.23;;
68886;SDS011;55925;51.764;6.402;2023-03-11T09:27:55;4.65;;;1.98;;
68886;SDS011;55925;51.764;6.402;2023-03-11T09:30:21;5.03;;;1.15;;
68886;SDS011;55925;51.764;6.402;2023-03-11T09:32:47;3.13;;;1.15;;
68886;SDS011;55925;51.764;6.402;2023-03-11T09:35:13;7.05;;;1.65;;
68886;SDS011;55925;51.764;6.402;2023-03-11T09:37:39;6.65;;;1.90;;
68886;SDS011;55925;51.764;6.402;2023-03-11T09:40:05;5.38;;;1.20;;
68886;SDS011;55925;51.764;6.402;2023-03-11T09:42:40;3.95;;;1.00;;
68886;SDS011;55925;51.764;6.402;2023-03-11T09:52:55;2.60;;;0.80;;
68886;SDS011;55925;51.764;6.402;2023-03-11T09:55:26;4.45;;;1.02;;
68886;SDS011;55925;51.764;6.402;2023-03-11T09:57:54;3.47;;;0.77;;
68886;SDS011;55925;51.764;6.402;2023-03-11T10:00:22;3.90;;;1.10;;
68886;SDS011;55925;51.764;6.402;2023-03-11T10:02:48;2.83;;;1.17;;
68886;SDS011;55925;51.764;6.402;2023-03-11T10:05:22;2.95;;;1.02;;
68886;SDS011;55925;51.764;6.402;2023-03-11T10:07:58;4.03;;;1.20;;
68886;SDS011;55925;51.764;6.402;2023-03-11T10:10:26;8.23;;;1.30;;
68886;SDS011;55925;51.764;6.402;2023-03-11T10:12:56;3.47;;;0.90;;
68886;SDS011;55925;51.764;6.402;2023-03-11T10:15:33;5.13;;;1.00;;
68886;SDS011;55925;51.764;6.402;2023-03-11T10:20:45;2.30;;;0.68;;
68886;SDS011;55925;51.764;6.402;2023-03-11T10:28:12;2.85;;;0.90;;
68886;SDS011;55925;51.764;6.402;2023-03-11T10:35:40;4.50;;;1.90;;
68886;SDS011;55925;51.764;6.402;2023-03-11T10:40:43;5.60;;;1.33;;
68886;SDS011;55925;51.764;6.402;2023-03-11T10:43:11;4.13;;;1.13;;
68886;SDS011;55925;51.764;6.402;2023-03-11T10:45:39;4.65;;;1.13;;
68886;SDS011;55925;51.764;6.402;2023-03-11T10:48:12;1.70;;;0.82;;
68886;SDS011;55925;51.764;6.402;2023-03-11T10:50:41;2.72;;;0.82;;
68886;SDS011;55925;51.764;6.402;2023-03-11T10:53:09;2.42;;;0.95;;
68886;SDS011;55925;51.764;6.402;2023-03-11T10:55:43;3.17;;;0.75;;
68886;SDS011;55925;51.764;6.402;2023-03-11T10:58:20;3.00;;;0.95;;
68886;SDS011;55925;51.764;6.402;2023-03-11T11:01:32;5.15;;;1.45;;
68886;SDS011;55925;51.764;6.402;2023-03-11T11:03:33;3.13;;;1.00;;
68886;SDS011;55925;51.764;6.402;2023-03-11T11:06:04;3.25;;;1.00;;
68886;SDS011;55925;51.764;6.402;2023-03-11T11:08:30;3.50;;;0.95;;
68886;SDS011;55925;51.764;6.402;2023-03-11T11:10:57;1.60;;;0.65;;
68886;SDS011;55925;51.764;6.402;2023-03-11T11:13:25;3.33;;;1.00;;
68886;SDS011;55925;51.764;6.402;2023-03-11T11:15:52;3.13;;;0.95;;
68886;SDS011;55925;51.764;6.402;2023-03-11T11:25:59;4.15;;;1.20;;
68886;SDS011;55925;51.764;6.402;2023-03-11T11:28:26;3.50;;;1.10;;
68886;SDS011;55925;51.764;6.402;2023-03-11T11:30:53;3.67;;;1.40;;
68886;SDS011;55925;51.764;6.402;2023-03-11T11:34:13;3.08;;;0.93;;
68886;SDS011;55925;51.764;6.402;2023-03-11T11:36:11;3.00;;;0.90;;
68886;SDS011;55925;51.764;6.402;2023-03-11T11:38:37;3.58;;;1.15;;
68886;SDS011;55925;51.764;6.402;2023-03-11T11:41:04;5.28;;;0.93;;
68886;SDS011;55925;51.764;6.402;2023-03-11T11:46:01;5.95;;;1.02;;
68886;SDS011;55925;51.764;6.402;2023-03-11T11:51:02;3.15;;;0.98;;
68886;SDS011;55925;51.764;6.402;2023-03-11T11:53:54;5.70;;;1.13;;
68886;SDS011;55925;51.764;6.402;2023-03-11T11:56:22;5.45;;;1.10;;
68886;SDS011;55925;51.764;6.402;2023-03-11T11:58:49;3.65;;;1.23;;
68886;SDS011;55925;51.764;6.402;2023-03-11T12:09:00;2.35;;;0.90;;
68886;SDS011;55925;51.764;6.402;2023-03-11T12:11:38;4.10;;;1.10;;
68886;SDS011;55925;51.764;6.402;2023-03-11T12:14:13;3.83;;;0.98;;
68886;SDS011;55925;51.764;6.402;2023-03-11T12:16:49;2.72;;;1.00;;
68886;SDS011;55925;51.764;6.402;2023-03-11T12:19:22;3.00;;;0.93;;
68886;SDS011;55925;51.764;6.402;2023-03-11T12:27:02;6.88;;;0.80;;
68886;SDS011;55925;51.764;6.402;2023-03-11T12:29:32;7.18;;;1.17;;
68886;SDS011;55925;51.764;6.402;2023-03-11T12:32:00;3.35;;;0.75;;
68886;SDS011;55925;51.764;6.402;2023-03-11T12:34:26;2.65;;;0.77;;
68886;SDS011;55925;51.764;6.402;2023-03-11T12:36:53;4.10;;;1.00;;
68886;SDS011;55925;51.764;6.402;2023-03-11T12:39:25;4.30;;;1.30;;
68886;SDS011;55925;51.764;6.402;2023-03-11T12:44:37;6.43;;;1.63;;
68886;SDS011;55925;51.764;6.402;2023-03-11T12:49:40;3.75;;;1.00;;
68886;SDS011;55925;51.764;6.402;2023-03-11T12:54:34;3.83;;;0.90;;
68886;SDS011;55925;51.764;6.402;2023-03-11T13:12:38;3.35;;;1.00;;
68886;SDS011;55925;51.764;6.402;2023-03-11T13:17:59;2.78;;;0.73;;
68886;SDS011;55925;51.764;6.402;2023-03-11T13:25:43;2.90;;;0.90;;
68886;SDS011;55925;51.764;6.402;2023-03-11T13:33:46;5.57;;;1.30;;
68886;SDS011;55925;51.764;6.402;2023-03-11T13:41:26;3.72;;;1.38;;
68886;SDS011;55925;51.764;6.402;2023-03-11T13:44:05;5.35;;;1.58;;
68886;SDS011;55925;51.764;6.402;2023-03-11T13:46:38;3.10;;;0.95;;
68886;SDS011;55925;51.764;6.402;2023-03-11T13:49:20;3.30;;;0.73;;
68886;SDS011;55925;51.764;6.402;2023-03-11T13:51:48;3.72;;;1.00;;
68886;SDS011;55925;51.764;6.402;2023-03-11T13:56:56;3.70;;;0.88;;
68886;SDS011;55925;51.764;6.402;2023-03-11T13:59:27;3.28;;;1.00;;
68886;SDS011;55925;51.764;6.402;2023-03-11T14:01:55;2.97;;;0.90;;
68886;SDS011;55925;51.764;6.402;2023-03-11T14:04:24;2.70;;;1.08;;
68886;SDS011;55925;51.764;6.402;2023-03-11T14:06:51;4.80;;;1.35;;
68886;SDS011;55925;51.764;6.402;2023-03-11T14:09:18;3.55;;;0.82;;
68886;SDS011;55925;51.764;6.402;2023-03-11T14:11:44;2.10;;;0.90;;
68886;SDS011;55925;51.764;6.402;2023-03-11T14:14:26;2.78;;;0.90;;
68886;SDS011;55925;51.764;6.402;2023-03-11T14:16:55;3.65;;;1.13;;
68886;SDS011;55925;51.764;6.402;2023-03-11T14:19:21;3.22;;;1.08;;
68886;SDS011;55925;51.764;6.402;2023-03-11T14:21:48;3.97;;;1.10;;
68886;SDS011;55925;51.764;6.402;2023-03-11T14:24:22;3.10;;;1.02;;
68886;SDS011;55925;51.764;6.402;2023-03-11T14:26:50;5.18;;;1.15;;
68886;SDS011;55925;51.764;6.402;2023-03-11T14:29:26;3.78;;;0.75;;
68886;SDS011;55925;51.764;6.402;2023-03-11T14:31:54;3.92;;;1.30;;
68886;SDS011;55925;51.764;6.402;2023-03-11T14:34:21;20.10;;;1.52;;
68886;SDS011;55925;51.764;6.402;2023-03-11T14:36:58;4.15;;;1.05;;
68886;SDS011;55925;51.764;6.402;2023-03-11T14:41:52;5.32;;;1.25;;
68886;SDS011;55925;51.764;6.402;2023-03-11T14:44:18;4.47;;;1.30;;
68886;SDS011;55925;51.764;6.402;2023-03-11T14:46:45;4.25;;;1.20;;
68886;SDS011;55925;51.764;6.402;2023-03-11T14:49:13;4.47;;;1.10;;
68886;SDS011;55925;51.764;6.402;2023-03-11T14:51:41;4.93;;;1.25;;
68886;SDS011;55925;51.764;6.402;2023-03-11T14:54:13;5.65;;;2.00;;
68886;SDS011;55925;51.764;6.402;2023-03-11T14:56:42;5.00;;;1.35;;
68886;SDS011;55925;51.764;6.402;2023-03-11T14:59:15;2.50;;;0.90;;
68886;SDS011;55925;51.764;6.402;2023-03-11T15:01:42;5.28;;;0.90;;
68886;SDS011;55925;51.764;6.402;2023-03-11T15:04:14;3.05;;;1.10;;
68886;SDS011;55925;51.764;6.402;2023-03-11T15:06:45;2.50;;;0.93;;
68886;SDS011;55925;51.764;6.402;2023-03-11T15:11:47;3.85;;;0.80;;
68886;SDS011;55925;51.764;6.402;2023-03-11T15:16:46;4.28;;;1.25;;
68886;SDS011;55925;51.764;6.402;2023-03-11T15:21:56;2.58;;;1.10;;
68886;SDS011;55925;51.764;6.402;2023-03-11T15:24:24;3.63;;;0.90;;
68886;SDS011;55925;51.764;6.402;2023-03-11T15:29:19;5.43;;;1.52;;
68886;SDS011;55925;51.764;6.402;2023-03-11T15:31:46;2.10;;;0.93;;
68886;SDS011;55925;51.764;6.402;2023-03-11T15:41:42;4.50;;;1.17;;
68886;SDS011;55925;51.764;6.402;2023-03-11T15:46:47;4.63;;;1.42;;
68886;SDS011;55925;51.764;6.402;2023-03-11T15:49:13;2.85;;;1.20;;
68886;SDS011;55925;51.764;6.402;2023-03-11T15:51:39;4.90;;;1.38;;
68886;SDS011;55925;51.764;6.402;2023-03-11T15:54:05;2.80;;;1.20;;
68886;SDS011;55925;51.764;6.402;2023-03-11T15:56:31;4.00;;;1.10;;
68886;SDS011;55925;51.764;6.402;2023-03-11T15:58:58;3.40;;;1.23;;
68886;SDS011;55925;51.764;6.402;2023-03-11T16:01:24;4.80;;;1.33;;
68886;SDS011;55925;51.764;6.402;2023-03-11T16:03:53;2.95;;;1.20;;
68886;SDS011;55925;51.764;6.402;2023-03-11T16:06:19;2.72;;;1.30;;
68886;SDS011;55925;51.764;6.402;2023-03-11T16:08:46;5.22;;;1.20;;
68886;SDS011;55925;51.764;6.402;2023-03-11T16:11:12;4.55;;;1.73;;
68886;SDS011;55925;51.764;6.402;2023-03-11T16:13:38;2.95;;;1.13;;
68886;SDS011;55925;51.764;6.402;2023-03-11T16:16:04;3.42;;;1.13;;
68886;SDS011;55925;51.764;6.402;2023-03-11T16:18:31;5.35;;;1.20;;
68886;SDS011;55925;51.764;6.402;2023-03-11T16:20:58;3.58;;;1.10;;
68886;SDS011;55925;51.764;6.402;2023-03-11T16:23:26;4.15;;;1.30;;
68886;SDS011;55925;51.764;6.402;2023-03-11T16:25:54;3.70;;;1.17;;
68886;SDS011;55925;51.764;6.402;2023-03-11T16:28:21;5.10;;;1.10;;
68886;SDS011;55925;51.764;6.402;2023-03-11T16:30:48;6.55;;;1.73;;
68886;SDS011;55925;51.764;6.402;2023-03-11T16:33:14;3.67;;;1.33;;
68886;SDS011;55925;51.764;6.402;2023-03-11T16:35:40;5.78;;;1.35;;
68886;SDS011;55925;51.764;6.402;2023-03-11T16:38:06;3.25;;;1.10;;
68886;SDS011;55925;51.764;6.402;2023-03-11T16:40:33;3.78;;;1.75;;
68886;SDS011;55925;51.764;6.402;2023-03-11T16:43:00;4.00;;;1.42;;
68886;SDS011;55925;51.764;6.402;2023-03-11T16:45:26;3.13;;;1.25;;
68886;SDS011;55925;51.764;6.402;2023-03-11T16:47:52;3.78;;;1.40;;
68886;SDS011;55925;51.764;6.402;2023-03-11T16:50:18;4.13;;;1.30;;
68886;SDS011;55925;51.764;6.402;2023-03-11T16:52:45;3.15;;;1.23;;
68886;SDS011;55925;51.764;6.402;2023-03-11T16:55:11;5.70;;;1.38;;
68886;SDS011;55925;51.764;6.402;2023-03-11T16:57:37;3.70;;;1.25;;